Date,TemperatureHighF,TemperatureAvgF,TemperatureLowF,DewpointHighF,DewpointAvgF,DewpointLowF,HumidityHigh,HumidityAvg,HumidityLow,PressureMaxIn,PressureMinIn,WindSpeedMaxMPH,WindSpeedAvgMPH,GustSpeedMaxMPH,PrecipitationSumIn
2013-1-1,76.0,62.1,51.0,60.0,55.1,50.0,98,80,49,0.00,40.00,12,4,0,0.00
2013-1-2,80.0,65.2,52.0,67.0,60.5,52.0,99,86,56,0.00,40.00,10,4,0,0.00
2013-1-3,68.0,62.2,56.0,65.0,61.3,54.0,100,96,85,0.00,40.00,11,4,0,0.06
2013-1-4,57.0,54.5,51.0,57.0,54.5,51.0,100,100,98,0.00,40.00,10,6,0,0.17
2013-1-5,71.0,58.6,47.0,59.0,53.2,46.0,98,83,63,0.00,40.00,10,6,0,0.00
2013-1-6,78.0,64.8,58.0,67.0,60.7,56.0,98,87,61,0.00,40.00,9,4,0,0.06
2013-1-7,66.0,59.3,52.0,58.0,54.7,48.0,99,85,68,0.00,40.00,13,7,0,0.03
2013-1-8,79.0,67.9,58.0,69.0,64.8,57.0,100,90,66,0.00,40.00,10,6,0,0.00
2013-1-9,80.0,71.2,66.0,73.0,68.3,66.0,100,91,69,0.00,40.00,9,5,0,0.00
2013-1-10,81.0,71.0,64.0,71.0,65.6,60.0,100,85,50,0.00,40.00,12,6,0,0.00
2013-1-11,81.0,68.8,59.0,71.0,62.8,59.0,100,84,51,0.00,40.00,9,4,0,0.00
2013-1-12,81.0,69.4,60.0,69.0,62.6,60.0,100,82,47,0.00,40.00,9,4,0,0.00
2013-1-13,81.0,68.6,58.0,68.0,61.7,58.0,100,81,48,0.00,40.00,8,4,0,0.00
2013-1-14,81.0,68.6,58.0,68.0,61.9,58.0,100,81,49,0.00,40.00,10,4,0,0.00
2013-1-15,81.0,70.3,61.0,68.0,63.6,61.0,100,81,51,0.00,40.00,8,4,0,0.00
2013-1-16,80.0,68.4,59.0,67.0,61.4,58.0,100,80,47,0.00,40.00,8,3,0,0.00
2013-1-17,75.0,61.2,50.0,69.0,56.3,42.0,100,84,65,0.00,40.00,13,7,0,0.00
2013-1-18,65.0,51.7,39.0,53.0,44.2,34.0,87,76,61,0.00,40.00,19,9,0,0.00
2013-1-19,73.0,60.7,52.0,58.0,54.8,50.0,95,82,59,0.00,40.00,12,8,0,0.00
2013-1-20,72.0,62.8,58.0,60.0,56.6,50.0,98,81,62,0.00,40.00,9,5,0,0.00
2013-1-21,74.0,63.7,57.0,57.0,54.8,50.0,89,73,52,0.00,40.00,7,3,0,0.00
2013-1-22,61.0,54.2,44.0,50.0,39.5,30.0,87,59,32,0.00,40.00,9,5,0,0.00
2013-1-23,66.0,51.3,36.0,44.0,34.8,28.0,95,58,24,0.00,40.00,10,4,0,0.00
2013-1-24,74.0,56.1,40.0,54.0,45.7,38.0,97,72,38,0.00,40.00,7,3,0,0.00
2013-1-25,75.0,61.0,50.0,58.0,50.7,45.0,100,73,39,0.00,40.00,9,3,0,0.00
2013-1-26,75.0,59.3,47.0,60.0,52.2,45.0,100,80,48,0.00,40.00,7,3,0,0.00
2013-1-27,78.0,62.5,50.0,63.0,56.5,49.0,100,83,48,0.00,40.00,12,4,0,0.00
2013-1-28,79.0,68.8,61.0,63.0,61.5,60.0,95,79,54,0.00,40.00,13,6,0,0.08
2013-1-29,83.0,70.6,61.0,71.0,63.6,60.0,100,81,45,0.00,40.00,11,6,0,0.00
2013-1-30,84.0,73.3,64.0,66.0,64.0,60.0,99,74,48,0.00,40.00,21,10,0,0.00
2013-1-31,71.0,56.0,45.0,65.0,33.6,24.0,81,45,22,0.00,40.00,12,5,0,0.00
2013-2-1,68.0,50.8,35.0,39.0,30.5,24.0,81,51,19,0.00,40.00,7,4,0,0.00
2013-2-2,70.0,52.7,36.0,44.0,37.2,30.0,94,61,23,0.00,40.00,8,4,0,0.00
2013-2-3,69.0,53.2,36.0,49.0,39.9,31.0,97,66,26,0.00,40.00,9,4,0,0.00
2013-2-4,69.0,52.7,38.0,46.0,37.7,31.0,98,63,25,0.00,40.00,7,3,0,0.00
2013-2-5,75.0,57.3,39.0,53.0,43.7,36.0,94,65,33,0.00,40.00,8,3,0,0.00
2013-2-6,74.0,64.7,57.0,63.0,57.5,51.0,89,77,61,0.00,40.00,8,4,0,0.00
2013-2-7,79.0,68.5,59.0,65.0,61.8,58.0,99,81,53,0.00,40.00,14,6,0,0.00
2013-2-8,77.0,67.4,56.0,66.0,59.5,55.0,97,78,47,0.00,40.00,9,5,0,0.00
2013-2-9,72.0,60.0,51.0,55.0,52.4,50.0,98,78,49,0.00,40.00,11,7,0,0.00
2013-2-10,77.0,65.1,55.0,58.0,54.9,51.0,90,71,47,0.00,40.00,15,8,0,0.00
2013-2-11,82.0,69.2,57.0,62.0,59.3,57.0,97,73,45,0.00,40.00,15,6,0,0.00
2013-2-12,84.0,71.4,59.0,68.0,62.8,59.0,99,77,44,0.00,40.00,11,6,0,0.00
2013-2-13,81.0,70.3,63.0,70.0,67.2,62.0,97,90,62,0.00,40.00,15,8,0,0.17
2013-2-14,64.0,59.9,54.0,62.0,58.1,54.0,100,94,79,0.00,40.00,8,4,0,0.31
2013-2-15,69.0,56.3,48.0,54.0,50.8,48.0,100,84,52,0.00,40.00,7,4,0,0.00
2013-2-16,66.0,54.2,47.0,51.0,42.4,27.0,98,68,37,0.00,40.00,11,6,0,0.00
2013-2-17,54.0,42.7,33.0,33.0,19.7,10.0,86,43,17,0.00,40.00,11,5,0,0.00
2013-2-18,67.0,49.1,30.0,46.0,33.7,20.0,90,59,29,0.00,40.00,12,6,0,0.00
2013-2-19,78.0,61.9,45.0,56.0,50.5,43.0,95,69,40,0.00,40.00,13,5,0,0.00
2013-2-20,73.0,62.0,53.0,60.0,52.5,47.0,95,73,49,0.00,40.00,9,4,0,0.00
2013-2-21,82.0,65.2,50.0,62.0,55.9,48.0,94,74,44,0.00,40.00,10,4,0,0.00
2013-2-22,85.0,72.2,60.0,69.0,63.9,60.0,100,78,44,0.00,40.00,14,6,0,0.00
2013-2-23,86.0,75.5,68.0,69.0,66.4,62.0,97,76,45,0.00,40.00,14,8,0,0.00
2013-2-24,76.0,70.4,63.0,70.0,66.8,61.0,97,89,74,0.00,40.00,8,4,0,0.00
2013-2-25,85.0,72.3,63.0,71.0,65.4,61.0,99,81,46,0.00,40.00,11,5,0,0.00
2013-2-26,75.0,70.2,65.0,72.0,66.2,59.0,98,87,61,0.00,40.00,16,8,0,0.33
2013-2-27,72.0,63.6,55.0,62.0,52.1,46.0,91,68,40,0.00,40.00,8,6,0,0.00
2013-2-28,72.0,58.7,45.0,53.0,47.2,42.0,96,68,35,0.00,40.00,12,5,0,0.00
2013-3-1,66.0,54.6,46.0,48.0,38.9,32.0,88,58,27,0.00,40.00,9,6,0,0.00
2013-3-2,57.0,49.4,42.0,37.0,31.3,23.0,73,51,26,0.00,40.00,16,8,0,0.00
2013-3-3,51.0,43.5,37.0,32.0,29.2,27.0,75,58,39,0.00,40.00,13,7,0,0.00
2013-3-4,66.0,47.5,30.0,37.0,28.4,20.0,94,54,21,0.00,40.00,8,3,0,0.00
2013-3-5,74.0,53.1,39.0,47.0,40.7,36.0,93,67,36,0.00,40.00,11,5,0,0.00
2013-3-6,66.0,56.6,47.0,35.0,29.0,23.0,55,36,20,0.00,40.00,11,8,0,0.00
2013-3-7,68.0,51.2,38.0,44.0,35.6,31.0,92,58,32,0.00,40.00,8,4,0,0.00
2013-3-8,73.0,54.9,36.0,46.0,39.7,35.0,97,64,24,0.00,40.00,9,4,0,0.00
2013-3-9,74.0,58.9,42.0,52.0,47.0,42.0,98,69,32,0.00,40.00,13,6,0,0.00
2013-3-10,77.0,64.3,51.0,56.0,52.9,49.0,96,69,40,0.00,40.00,15,7,0,0.00
2013-3-11,77.0,66.3,54.0,61.0,56.0,53.0,96,72,47,0.00,40.00,12,7,0,0.00
2013-3-12,73.0,65.3,57.0,66.0,59.6,-99.9,97,86,73,0.00,40.00,13,8,0,0.06
2013-3-13,74.0,60.2,48.0,55.0,38.7,26.0,95,53,17,0.00,40.00,10,5,0,0.00
2013-3-14,65.0,53.3,42.0,41.0,32.2,27.0,83,47,23,0.00,40.00,10,6,0,0.00
2013-3-15,72.0,54.0,36.0,47.0,36.8,28.0,98,61,24,0.00,40.00,10,3,0,0.00
2013-3-16,79.0,60.0,42.0,52.0,42.3,39.0,97,59,24,0.00,40.00,9,4,0,0.00
2013-3-17,76.0,63.2,47.0,60.0,50.9,43.0,100,68,37,0.00,40.00,11,4,0,0.00
2013-3-18,79.0,69.3,61.0,65.0,62.2,58.0,98,79,56,0.00,40.00,9,5,0,0.00
2013-3-19,85.0,72.4,62.0,65.0,61.0,56.0,98,71,39,0.00,40.00,8,4,0,0.00
2013-3-20,73.0,64.9,57.0,64.0,60.7,57.0,99,86,71,0.00,40.00,15,4,0,0.35
2013-3-21,69.0,57.4,45.0,57.0,40.2,23.0,100,61,17,0.00,40.00,10,4,0,0.00
2013-3-22,77.0,59.4,43.0,51.0,44.2,39.0,92,61,31,0.00,40.00,10,5,0,0.00
2013-3-23,84.0,69.8,57.0,72.0,63.4,52.0,99,81,57,0.00,40.00,13,5,0,0.00
2013-3-24,80.0,72.1,67.0,73.0,68.5,64.0,97,88,75,0.00,40.00,17,9,0,0.46
2013-3-25,70.0,62.9,53.0,65.0,43.6,26.0,94,55,19,0.00,40.00,10,6,0,0.00
2013-3-26,60.0,51.2,42.0,37.0,27.3,18.0,64,41,19,0.00,40.00,11,6,0,0.00
2013-3-27,63.0,49.1,38.0,37.0,29.8,25.0,76,51,23,0.00,40.00,7,4,0,0.00
2013-3-28,72.0,53.9,35.0,41.0,33.6,25.0,95,55,19,0.00,40.00,10,4,0,0.00
2013-3-29,73.0,57.4,39.0,52.0,36.4,27.0,98,56,18,0.00,40.00,7,3,0,0.00
2013-3-30,77.0,61.8,45.0,53.0,44.9,38.0,91,58,32,0.00,40.00,11,4,0,0.00
2013-3-31,82.0,67.6,55.0,55.0,50.4,-99.9,90,60,29,0.00,40.00,12,5,0,0.00
2013-4-1,83.0,70.6,57.0,64.0,59.8,54.0,93,71,45,0.00,40.00,11,6,0,0.00
2013-4-2,83.0,70.0,57.0,64.0,54.0,45.0,99,64,28,0.00,40.00,10,5,0,0.00
2013-4-3,82.0,68.5,57.0,66.0,61.7,54.0,97,80,51,0.00,40.00,13,6,0,0.14
2013-4-4,73.0,69.6,66.0,69.0,66.8,64.0,99,91,78,0.00,40.00,16,6,0,0.00
2013-4-5,75.0,66.6,56.0,67.0,62.6,55.0,97,87,67,0.00,40.00,13,6,0,0.00
2013-4-6,74.0,63.1,51.0,57.0,55.0,51.0,97,76,53,0.00,40.00,13,8,0,0.00
2013-4-7,80.0,67.5,57.0,63.0,57.1,53.0,99,72,40,0.00,40.00,11,6,0,0.00
2013-4-8,84.0,70.7,58.0,64.0,58.8,53.0,98,70,36,0.00,40.00,10,5,0,0.00
2013-4-9,85.0,72.0,60.0,69.0,61.0,53.0,100,72,42,0.00,40.00,12,6,0,0.00
2013-4-10,86.0,72.5,59.0,70.0,62.5,58.0,99,74,42,0.00,40.00,10,5,0,0.00
2013-4-11,90.0,78.8,72.0,72.0,69.3,65.0,97,75,45,0.00,40.00,13,8,0,0.00
2013-4-12,83.0,76.7,73.0,74.0,71.8,70.0,96,85,66,0.00,40.00,16,8,0,0.00
2013-4-13,87.0,74.7,65.0,70.0,63.8,53.0,99,72,34,0.00,40.00,10,4,0,0.00
2013-4-14,88.0,71.9,61.0,73.0,64.3,-99.9,95,80,53,0.00,40.00,11,6,0,0.03
2013-4-15,89.0,75.1,65.0,67.0,64.1,61.0,96,71,43,0.00,40.00,8,5,0,0.00
2013-4-16,86.0,74.2,66.0,71.0,66.7,64.0,100,79,55,0.00,40.00,12,7,0,0.00
2013-4-17,84.0,73.1,65.0,71.0,65.3,61.0,100,79,46,0.00,40.00,12,6,0,0.00
2013-4-18,88.0,76.2,64.0,70.0,65.1,57.0,100,72,35,0.00,40.00,10,5,0,0.00
2013-4-19,92.0,79.7,71.0,73.0,69.3,65.0,97,72,42,0.00,40.00,15,8,0,0.00
2013-4-20,79.0,62.7,56.0,71.0,60.2,55.0,99,92,65,0.00,40.00,12,6,0,0.25
2013-4-21,77.0,67.6,59.0,70.0,64.0,57.0,99,88,75,0.00,40.00,12,8,0,0.17
2013-4-22,75.0,67.1,63.0,69.0,65.4,61.0,100,94,78,0.00,40.00,13,8,0,0.00
2013-4-23,79.0,69.2,60.0,63.0,59.6,54.0,98,74,43,0.00,40.00,12,8,0,0.00
2013-4-24,85.0,72.5,56.0,62.0,57.9,51.0,98,65,31,0.00,40.00,10,5,0,0.00
2013-4-25,88.0,74.1,60.0,68.0,61.2,56.0,98,68,34,0.00,40.00,9,3,0,0.00
2013-4-26,86.0,74.5,63.0,68.0,63.6,61.0,97,71,44,0.00,40.00,14,5,0,0.00
2013-4-27,84.0,72.7,65.0,68.0,61.0,-99.9,98,73,40,0.00,40.00,13,7,0,0.00
2013-4-28,82.0,72.5,62.0,69.0,64.3,62.0,99,77,51,0.00,40.00,15,7,0,0.00
2013-4-29,85.0,74.7,63.0,67.0,63.2,57.0,96,70,43,0.00,40.00,12,5,0,0.00
2013-4-30,88.0,72.5,66.0,71.0,64.7,-99.9,99,81,39,0.00,40.00,13,4,0,0.19
2013-5-1,79.0,71.5,67.0,71.0,68.0,66.0,100,89,64,0.00,40.00,9,6,0,0.00
2013-5-2,70.0,68.3,66.0,69.0,68.0,65.0,100,98,95,0.00,40.00,10,5,0,1.46
2013-5-3,76.0,70.0,67.0,71.0,68.2,66.0,100,94,75,0.00,40.00,16,8,0,1.26
2013-5-4,82.0,73.0,67.0,72.0,68.9,66.0,98,87,65,0.00,40.00,15,5,0,0.00
2013-5-5,78.0,68.4,58.0,68.0,54.3,45.0,97,65,32,0.00,40.00,9,6,0,0.00
2013-5-6,74.0,66.2,60.0,61.0,53.9,49.0,92,66,42,0.00,40.00,10,5,0,0.00
2013-5-7,78.0,65.7,52.0,60.0,55.5,51.0,96,72,45,0.00,40.00,10,5,0,0.00
2013-5-8,82.0,70.4,61.0,63.0,59.2,54.0,96,71,39,0.00,40.00,9,4,0,0.00
2013-5-9,85.0,72.2,59.0,67.0,60.8,57.0,99,71,39,0.00,40.00,8,3,0,0.00
2013-5-10,90.0,74.4,61.0,70.0,61.9,-99.9,98,71,41,0.00,40.00,11,4,0,0.00
2013-5-11,89.0,76.5,66.0,71.0,68.0,64.0,96,77,49,0.00,40.00,11,5,0,0.00
2013-5-12,88.0,76.2,66.0,69.0,64.6,-99.9,96,71,47,0.00,40.00,11,5,0,0.00
2013-5-13,83.0,72.0,62.0,67.0,55.6,45.0,95,60,30,0.00,40.00,9,5,0,0.00
2013-5-14,83.0,67.7,51.0,55.0,50.0,45.0,96,58,28,0.00,40.00,9,4,0,0.00
2013-5-15,85.0,71.0,56.0,63.0,55.1,49.0,96,62,31,0.00,40.00,11,4,0,0.00
2013-5-16,87.0,67.3,60.0,65.0,39.6,-99.9,97,66,36,0.00,40.00,12,4,0,0.00
2013-5-17,89.0,74.2,61.0,68.0,56.8,-99.9,96,69,36,0.00,40.00,12,5,0,0.00
2013-5-18,91.0,77.7,65.0,71.0,66.9,61.0,98,72,37,0.00,40.00,12,5,0,0.00
2013-5-19,87.0,76.2,67.0,75.0,70.4,66.0,97,83,59,0.00,40.00,13,5,0,0.00
2013-5-20,89.0,75.1,70.0,74.0,69.2,63.0,97,84,45,0.00,40.00,10,4,0,0.17
2013-5-21,81.0,73.2,68.0,73.0,70.1,68.0,100,90,68,0.00,40.00,10,4,0,0.06
2013-5-22,84.0,74.6,68.0,74.0,70.4,68.0,100,87,61,0.00,40.00,10,4,0,0.08
2013-5-23,91.0,78.2,68.0,75.0,70.0,66.0,100,79,46,0.00,40.00,9,3,0,0.00
2013-5-24,92.0,80.6,70.0,75.0,67.3,59.0,100,69,33,0.00,40.00,7,4,0,0.00
2013-5-25,85.0,75.4,66.0,70.0,62.3,55.0,99,67,39,0.00,40.00,12,7,0,0.00
2013-5-26,85.0,72.1,58.0,63.0,56.9,54.0,94,62,34,0.00,40.00,10,5,0,0.00
2013-5-27,86.0,74.0,62.0,65.0,60.9,56.0,94,66,36,0.00,40.00,12,6,0,0.00
2013-5-28,88.0,76.7,66.0,70.0,66.5,62.0,90,72,49,0.00,40.00,14,8,0,0.00
2013-5-29,87.0,78.4,71.0,74.0,70.8,68.0,98,79,54,0.00,40.00,16,8,0,0.00
2013-5-30,87.0,78.2,72.0,74.0,71.4,69.0,98,80,55,0.00,40.00,16,9,0,0.00
2013-5-31,85.0,76.9,70.0,75.0,71.1,69.0,96,82,63,0.00,40.00,15,8,0,0.22
2013-6-1,84.0,76.9,71.0,75.0,72.9,71.0,98,88,68,0.00,40.00,14,7,0,0.03
2013-6-2,92.0,78.7,72.0,77.0,72.8,-99.9,100,87,51,0.00,40.00,12,4,0,0.08
2013-6-3,89.0,79.7,72.0,77.0,73.7,70.0,100,83,55,0.00,40.00,9,4,0,0.00
2013-6-4,89.0,77.8,73.0,75.0,73.1,71.0,98,86,57,0.00,40.00,16,5,0,0.03
2013-6-5,86.0,75.1,71.0,76.0,72.3,70.0,100,91,58,0.00,40.00,12,5,0,0.03
2013-6-6,81.0,74.9,72.0,76.0,73.2,71.0,99,94,77,0.00,40.00,19,11,0,1.15
2013-6-7,89.0,79.8,73.0,75.0,72.4,71.0,97,79,57,0.00,40.00,13,7,0,0.00
2013-6-8,89.0,77.3,72.0,76.0,73.1,71.0,99,88,59,0.00,40.00,13,4,0,0.06
2013-6-9,91.0,76.9,70.0,77.0,73.9,70.0,100,91,56,0.00,40.00,15,4,0,2.75
2013-6-10,92.0,80.3,72.0,77.0,73.2,69.0,100,81,48,0.00,40.00,12,4,0,0.00
2013-6-11,92.0,77.6,71.0,78.0,74.2,71.0,100,90,56,0.00,40.00,18,3,0,1.67
2013-6-12,94.0,82.1,71.0,78.0,72.9,68.0,100,77,42,0.00,40.00,7,3,0,0.00
2013-6-13,93.0,83.4,75.0,78.0,73.7,69.0,98,75,48,0.00,40.00,8,4,0,0.00
2013-6-14,90.0,82.1,76.0,76.0,73.9,71.0,95,77,54,0.00,40.00,9,6,0,0.00
2013-6-15,87.0,80.3,74.0,77.0,73.9,70.0,98,81,63,0.00,40.00,13,7,0,0.27
2013-6-16,89.0,80.3,76.0,77.0,73.9,71.0,94,81,62,0.00,40.00,13,6,0,0.00
2013-6-17,91.0,81.4,75.0,79.0,75.9,73.0,98,84,56,0.00,40.00,10,4,0,0.19
2013-6-18,91.0,82.2,74.0,77.0,74.6,72.0,98,79,53,0.00,40.00,9,4,0,0.00
2013-6-19,91.0,82.3,74.0,78.0,74.6,71.0,98,79,55,0.00,40.00,9,4,0,0.00
2013-6-20,94.0,81.1,72.0,77.0,72.5,69.0,99,78,46,0.00,40.00,10,3,0,0.00
2013-6-22,89.0,80.2,74.0,76.0,73.5,71.0,96,81,58,0.00,40.00,13,4,0,0.00
2013-6-23,90.0,79.7,72.0,77.0,73.8,71.0,100,83,53,0.00,40.00,12,4,0,0.00
2013-6-24,91.0,82.6,73.0,77.0,73.5,69.0,99,76,48,0.00,40.00,11,5,0,0.00
2013-6-25,92.0,81.6,72.0,76.0,72.6,66.0,99,76,43,0.00,40.00,11,4,0,0.00
2013-6-26,92.0,81.3,74.0,77.0,73.4,67.0,98,79,44,0.00,40.00,11,4,0,0.00
2013-6-27,90.0,78.9,71.0,76.0,73.8,71.0,99,85,62,0.00,40.00,6,3,0,0.00
2013-6-28,90.0,80.9,76.0,78.0,75.6,70.0,96,84,63,0.00,40.00,11,5,0,0.00
2013-6-29,86.0,79.3,74.0,78.0,75.7,71.0,95,89,74,0.00,40.00,12,6,0,0.11
2013-6-30,86.0,77.8,75.0,78.0,74.9,73.0,97,91,73,0.00,40.00,9,6,0,0.00
2013-7-1,83.0,77.6,73.0,77.0,73.9,72.0,96,88,75,0.00,40.00,14,9,0,0.06
2013-7-2,86.0,77.3,72.0,79.0,73.9,72.0,99,90,74,0.00,40.00,14,5,0,0.03
2013-7-3,89.0,77.9,73.0,78.0,74.8,72.0,99,90,64,0.00,40.00,10,6,0,1.02
2013-7-4,90.0,76.8,71.0,77.0,73.1,69.0,100,89,54,0.00,40.00,13,6,0,0.14
2013-7-5,88.0,79.2,71.0,78.0,74.1,71.0,99,85,61,0.00,40.00,12,6,0,0.06
2013-7-6,91.0,80.0,73.0,77.0,73.9,72.0,99,83,53,0.00,40.00,12,6,0,0.00
2013-7-7,90.0,80.7,74.0,78.0,74.0,69.0,99,82,50,0.00,40.00,12,6,0,0.00
2013-7-8,91.0,79.9,74.0,77.0,71.7,-99.9,99,81,54,0.00,40.00,11,5,0,0.00
2013-7-9,91.0,81.4,72.0,77.0,72.0,68.0,100,76,48,0.00,40.00,11,5,0,0.00
2013-7-10,90.0,78.6,72.0,77.0,69.0,-99.9,99,78,54,0.00,40.00,9,3,0,0.08
2013-7-11,91.0,79.9,73.0,76.0,73.1,70.0,98,81,50,0.00,40.00,9,4,0,0.00
2013-7-12,87.0,78.9,74.0,77.0,74.3,73.0,98,86,68,0.00,40.00,10,3,0,0.00
2013-7-13,91.0,78.5,73.0,76.0,73.7,72.0,99,86,55,0.00,40.00,10,4,0,0.41
2013-7-14,88.0,77.1,72.0,77.0,74.1,71.0,99,91,64,0.00,40.00,14,5,0,0.11
2013-7-15,85.0,77.4,70.0,79.0,73.9,70.0,100,89,70,0.00,40.00,12,5,0,0.00
2013-7-16,89.0,79.8,73.0,76.0,73.4,70.0,98,82,56,0.00,40.00,14,7,0,0.00
2013-7-17,90.0,80.8,75.0,78.0,74.0,71.0,99,82,54,0.00,40.00,13,7,0,0.00
2013-7-18,88.0,79.4,74.0,75.0,73.1,70.0,99,82,59,0.00,40.00,10,5,0,0.00
2013-7-19,88.0,76.4,72.0,75.0,72.9,71.0,99,89,62,0.00,40.00,10,4,0,0.41
2013-7-20,89.0,77.3,73.0,78.0,74.4,71.0,99,91,65,0.00,40.00,14,4,0,0.85
2013-7-21,91.0,77.5,73.0,79.0,74.9,73.0,100,92,58,0.00,40.00,11,3,0,0.00
2013-7-22,88.0,78.6,75.0,80.0,75.9,73.0,99,91,69,0.00,40.00,9,4,0,0.00
2013-7-23,82.0,76.4,74.0,78.0,75.1,74.0,100,95,83,0.00,40.00,8,4,0,0.60
2013-7-24,86.0,79.1,74.0,79.0,76.3,72.0,99,91,75,0.00,40.00,9,5,0,0.11
2013-7-25,86.0,80.0,76.0,78.0,75.8,74.0,97,87,73,0.00,40.00,9,5,0,0.00
2013-7-26,94.0,82.4,74.0,79.0,74.8,70.0,100,80,45,0.00,40.00,11,3,0,0.00
2013-7-27,93.0,81.6,74.0,78.0,75.4,73.0,100,83,54,0.00,40.00,10,4,0,0.00
2013-7-28,89.0,77.8,73.0,78.0,74.4,71.0,99,90,57,0.00,40.00,9,3,0,0.11
2013-7-29,92.0,81.5,71.0,79.0,74.6,71.0,100,81,54,0.00,40.00,12,3,0,0.08
2013-7-30,94.0,82.4,74.0,78.0,75.1,70.0,98,80,47,0.00,40.00,8,3,0,0.00
2013-7-31,93.0,81.4,72.0,79.0,74.7,71.0,99,82,52,0.00,40.00,13,4,0,0.52
2013-8-1,91.0,77.6,72.0,78.0,73.7,72.0,99,88,54,0.00,40.00,10,4,0,0.00
2013-8-2,91.0,81.0,72.0,78.0,73.4,71.0,99,79,50,0.00,40.00,7,2,0,0.00
2013-8-3,89.0,80.2,75.0,78.0,75.7,74.0,98,87,64,0.00,40.00,9,4,0,0.00
2013-8-4,88.0,80.4,75.0,80.0,77.2,73.0,99,90,75,0.00,40.00,9,4,0,0.03
2013-8-5,91.0,81.8,74.0,81.0,77.3,73.0,99,87,59,0.00,40.00,12,4,0,0.00
2013-8-6,91.0,80.0,73.0,78.0,76.0,73.0,100,88,62,0.00,40.00,7,3,0,0.03
2013-8-7,92.0,81.0,76.0,80.0,76.7,75.0,99,88,58,0.00,40.00,11,5,0,0.00
2013-8-8,92.0,82.9,76.0,79.0,75.5,72.0,99,80,53,0.00,40.00,13,6,0,0.00
2013-8-9,91.0,80.1,75.0,79.0,75.6,74.0,99,87,57,0.00,40.00,9,4,0,0.14
2013-8-10,93.0,80.6,73.0,78.0,74.8,72.0,99,84,52,0.00,40.00,12,4,0,0.00
2013-8-11,94.0,84.0,75.0,78.0,74.8,70.0,98,76,46,0.00,40.00,9,4,0,0.00
2013-8-12,94.0,83.7,74.0,78.0,75.4,73.0,99,78,52,0.00,40.00,7,3,0,0.00
2013-8-13,95.0,81.9,75.0,77.0,71.0,-99.9,96,74,45,0.00,40.00,7,4,0,0.00
2013-8-14,95.0,78.2,75.0,79.0,68.3,-99.9,98,81,52,0.00,40.00,8,3,0,0.00
2013-8-15,94.0,71.6,74.0,77.0,49.6,-99.9,98,72,42,0.00,40.00,9,3,0,0.00
2013-8-16,90.0,79.4,76.0,78.0,68.3,-99.9,93,77,57,0.00,40.00,7,4,0,0.00
2013-8-19,89.0,73.1,74.0,80.0,53.4,-99.9,99,84,65,0.00,40.00,10,4,0,0.00
2013-8-20,92.0,80.5,75.0,80.0,71.7,-99.9,99,81,55,0.00,40.00,13,5,0,0.00
2013-8-21,89.0,79.1,76.0,79.0,76.4,75.0,99,91,64,0.00,40.00,10,5,0,0.03
2013-8-22,88.0,80.7,75.0,80.0,77.5,75.0,99,90,68,0.00,40.00,7,3,0,0.00
2013-8-23,88.0,77.0,71.0,79.0,75.2,70.0,100,94,67,0.00,40.00,11,4,0,1.07
2013-8-24,88.0,77.6,73.0,81.0,75.2,72.0,100,93,70,0.00,40.00,14,4,0,0.25
2013-8-25,86.0,75.5,74.0,77.0,70.1,-99.9,100,89,71,0.00,40.00,9,4,0,0.00
2013-8-26,87.0,81.4,74.0,77.0,74.6,72.0,99,80,66,0.00,40.00,13,8,0,0.03
2013-8-27,87.0,78.3,73.0,75.0,72.6,70.0,99,84,56,0.00,40.00,10,6,0,0.00
2013-8-28,90.0,84.6,75.0,71.0,69.2,67.0,85,61,48,0.00,40.00,8,5,0,0.00
2013-8-29,93.0,82.0,71.0,76.0,71.6,69.0,98,74,46,0.00,40.00,6,3,0,0.00
2013-8-30,94.0,83.7,73.0,78.0,73.3,70.0,97,73,46,0.00,40.00,10,3,0,0.00
2013-8-31,90.0,80.4,74.0,77.0,74.2,69.0,98,82,60,0.00,40.00,13,4,0,0.03
2013-9-1,92.0,80.1,73.0,76.0,70.6,-99.9,96,77,48,0.00,40.00,7,4,0,0.00
2013-9-2,93.0,86.9,79.0,76.0,73.4,71.0,85,65,50,0.00,40.00,9,5,0,0.00
2013-9-3,90.0,80.6,74.0,77.0,74.8,73.0,98,83,56,0.00,40.00,6,3,0,0.00
2013-9-4,93.0,81.3,74.0,78.0,74.8,71.0,99,82,53,0.00,40.00,11,3,0,0.00
2013-9-5,94.0,81.5,71.0,76.0,72.9,71.0,98,77,49,0.00,40.00,5,2,0,0.00
2013-9-6,93.0,79.1,71.0,79.0,74.6,69.0,98,87,52,0.00,40.00,10,3,0,0.08
2013-9-7,88.0,79.8,71.0,77.0,73.5,71.0,100,82,57,0.00,40.00,11,5,0,0.00
2013-9-8,89.0,78.0,72.0,77.0,70.1,-99.9,99,80,56,0.00,40.00,12,5,0,0.00
2013-9-9,90.0,78.6,69.0,73.0,69.5,67.0,98,76,47,0.00,40.00,11,5,0,0.00
2013-9-10,89.0,79.3,72.0,73.0,70.8,67.0,94,77,47,0.00,40.00,13,7,0,0.00
2013-9-11,90.0,80.4,74.0,76.0,72.6,70.0,98,79,51,0.00,40.00,12,7,0,0.00
2013-9-12,89.0,82.1,74.0,76.0,72.8,71.0,94,74,56,0.00,40.00,14,5,0,0.00
2013-9-13,92.0,80.1,70.0,77.0,72.2,69.0,99,79,49,0.00,40.00,5,2,0,0.00
2013-9-14,93.0,82.0,73.0,78.0,73.7,71.0,98,77,50,0.00,40.00,7,3,0,0.00
2013-9-15,92.0,78.2,74.0,79.0,72.4,-99.9,98,86,51,0.00,40.00,14,4,0,0.00
2013-9-16,91.0,80.0,72.0,76.0,73.7,71.0,98,82,52,0.00,40.00,10,4,0,0.00
2013-9-17,89.0,79.3,72.0,78.0,73.3,71.0,99,83,59,0.00,40.00,12,6,0,0.00
2013-9-18,76.0,74.9,74.0,74.0,73.0,72.0,96,94,92,0.00,40.00,7,5,0,0.00
2013-9-19,89.0,78.9,73.0,74.0,72.0,69.0,97,81,51,0.00,40.00,13,7,0,0.00
2013-9-20,88.0,77.5,68.0,71.0,69.1,67.0,95,76,54,0.00,40.00,10,4,0,0.00
2013-9-21,90.0,78.7,67.0,73.0,69.0,66.0,98,75,44,0.00,40.00,7,3,0,0.00
2013-9-22,89.0,77.7,75.0,77.0,72.3,-99.9,99,86,62,0.00,40.00,11,4,0,0.06
2013-9-23,82.0,76.1,73.0,79.0,75.4,73.0,100,97,85,0.00,40.00,10,4,0,0.38
2013-9-24,84.0,76.3,72.0,78.0,74.4,71.0,99,94,75,0.00,40.00,8,4,0,1.31
2013-9-25,82.0,76.6,73.0,76.0,73.6,71.0,99,90,76,0.00,40.00,9,5,0,0.03
2013-9-26,89.0,79.9,71.0,79.0,73.5,66.0,99,83,48,0.00,40.00,10,5,0,0.00
2013-9-27,81.0,73.9,69.0,75.0,70.7,68.0,98,90,75,0.00,40.00,12,6,0,0.00
2013-9-28,81.0,74.3,70.0,74.0,71.1,69.0,99,90,71,0.00,40.00,12,7,0,0.00
2013-9-29,86.0,74.6,68.0,73.0,67.7,-99.9,98,82,58,0.00,40.00,12,5,0,0.00
2013-9-30,87.0,75.8,68.0,74.0,69.3,67.0,99,82,52,0.00,40.00,12,4,0,0.00
2013-10-1,76.0,73.4,72.0,70.0,68.2,68.0,88,83,78,0.00,40.00,6,5,0,0.00
2013-10-2,86.0,75.8,67.0,70.0,67.4,65.0,95,76,55,0.00,40.00,11,5,0,0.00
2013-10-3,88.0,76.9,67.0,73.0,69.7,66.0,99,80,51,0.00,40.00,9,4,0,0.00
2013-10-4,91.0,78.4,70.0,76.0,70.8,68.0,99,79,47,0.00,40.00,11,4,0,0.00
2013-10-5,88.0,77.4,68.0,75.0,71.0,67.0,98,82,57,0.00,40.00,10,5,0,0.00
2013-10-6,90.0,78.2,71.0,77.0,71.9,68.0,99,83,49,0.00,40.00,11,4,0,0.00
2013-10-7,83.0,76.3,72.0,78.0,73.5,71.0,98,91,77,0.00,40.00,11,5,0,0.00
2013-10-8,85.0,75.8,72.0,76.0,73.6,71.0,100,93,71,0.00,40.00,11,5,0,0.55
2013-10-9,75.0,69.8,66.0,71.0,67.4,65.0,97,92,79,0.00,40.00,10,7,0,0.00
2013-10-10,85.0,72.6,63.0,68.0,65.1,62.0,97,79,50,0.00,40.00,8,4,0,0.00
2013-10-11,86.0,70.3,62.0,70.0,65.1,61.0,99,85,48,0.00,40.00,6,2,0,0.00
2013-10-12,86.0,73.1,61.0,71.0,63.1,60.0,99,74,42,0.00,40.00,6,2,0,0.00
2013-10-13,85.0,73.6,62.0,68.0,61.1,-99.9,97,70,41,0.00,40.00,8,3,0,0.00
2013-10-14,84.0,73.3,66.0,70.0,67.3,65.0,98,83,52,0.00,40.00,12,6,0,0.00
2013-10-15,78.0,72.2,67.0,72.0,69.4,65.0,97,90,79,0.00,40.00,8,4,0,0.00
2013-10-16,87.0,76.1,69.0,73.0,69.9,65.0,98,83,50,0.00,40.00,7,3,0,0.00
2013-10-17,89.0,76.1,67.0,75.0,69.6,66.0,99,82,47,0.00,40.00,5,2,0,0.00
2013-10-18,89.0,77.7,68.0,75.0,70.2,68.0,98,80,51,0.00,40.00,7,3,0,0.00
2013-10-19,89.0,78.2,69.0,76.0,71.6,69.0,98,82,53,0.00,40.00,8,3,0,0.00
2013-10-20,87.0,76.1,71.0,75.0,70.2,-99.9,98,85,62,0.00,40.00,10,4,0,0.00
2013-10-21,90.0,77.3,71.0,77.0,72.8,68.0,98,87,54,0.00,40.00,13,4,0,0.03
2013-10-22,90.0,78.6,72.0,77.0,72.0,68.0,99,82,49,0.00,40.00,11,4,0,0.00
2013-10-23,80.0,72.3,63.0,71.0,62.3,51.0,98,74,37,0.00,40.00,8,4,0,0.03
2013-11-25,73.0,65.7,58.0,59.0,55.3,51.0,84,69,51,0.00,40.00,15,9,0,0.00
2013-11-26,81.0,72.2,63.0,72.0,68.0,59.0,98,87,69,0.00,40.00,17,8,0,0.15
2013-11-27,73.0,59.7,40.0,72.0,54.9,37.0,98,84,67,0.00,40.00,12,8,0,0.98
2013-11-28,62.0,47.4,33.0,50.0,41.1,30.0,89,79,62,0.00,40.00,10,7,0,0.00
2013-11-29,70.0,56.0,46.0,58.0,51.2,45.0,98,85,62,0.00,40.00,13,8,0,0.00
2013-11-30,73.0,61.4,56.0,64.0,56.1,-99.9,99,87,72,0.00,40.00,13,8,0,0.00
2013-12-1,67.0,14.8,59.0,65.0,-60.7,-99.9,100,25,5,0.00,40.00,8,4,0,0.00
2013-12-3,77.0,63.2,50.0,59.0,55.1,49.0,98,78,51,0.00,40.00,7,3,0,0.00
2013-12-4,81.0,68.2,58.0,68.0,62.0,57.0,98,82,55,0.00,40.00,7,3,0,0.00
2013-12-5,83.0,70.2,60.0,67.0,63.4,59.0,98,81,51,0.00,40.00,7,3,0,0.00
2013-12-6,84.0,72.6,62.0,71.0,66.0,62.0,99,81,54,0.00,40.00,13,4,0,0.00
2013-12-7,83.0,70.5,63.0,68.0,61.4,-99.9,98,78,45,0.00,40.00,6,3,0,0.00
2013-12-8,83.0,71.0,61.0,71.0,64.7,61.0,99,82,49,0.00,40.00,10,4,0,0.00
2013-12-9,83.0,71.1,62.0,70.0,65.6,62.0,99,84,51,0.00,40.00,12,4,0,0.00
2013-12-10,84.0,71.8,61.0,68.0,64.7,60.0,97,80,52,0.00,40.00,11,5,0,0.00
2013-12-11,78.0,65.6,56.0,66.0,58.9,51.0,91,79,62,0.00,40.00,11,6,0,0.00
2013-12-12,67.0,58.7,48.0,58.0,43.9,26.0,95,63,22,0.00,40.00,11,7,0,0.00
2013-12-13,72.0,59.7,46.0,55.0,50.2,42.0,95,73,45,0.00,40.00,11,6,0,0.00
2013-12-14,80.0,68.0,58.0,68.0,59.9,-99.9,92,79,63,0.00,40.00,15,7,0,0.00
2013-12-19,74.0,55.9,39.0,57.0,47.9,38.0,97,77,41,0.00,40.00,6,4,0,0.00
2013-12-20,82.0,66.5,51.0,62.0,57.6,51.0,99,76,45,0.00,40.00,10,4,0,0.00
2013-12-21,85.0,71.7,64.0,71.0,62.7,-99.9,97,78,52,0.00,40.00,12,6,0,0.00
2013-12-22,84.0,73.8,65.0,72.0,67.7,65.0,99,82,58,0.00,40.00,14,5,0,0.00
2013-12-23,85.0,74.7,67.0,72.0,68.6,66.0,99,82,52,0.00,40.00,12,6,0,0.00
2013-12-24,72.0,61.2,47.0,71.0,50.8,31.0,98,72,32,0.00,40.00,10,6,0,0.10
2013-12-25,71.0,55.7,42.0,56.0,47.7,37.0,95,76,55,0.00,40.00,10,5,0,0.00
2013-12-26,73.0,59.9,55.0,62.0,56.8,54.0,99,90,65,0.00,40.00,10,6,0,0.00
2013-12-27,66.0,60.9,55.0,63.0,59.2,53.0,98,94,88,0.00,40.00,10,6,0,0.00
2013-12-28,76.0,66.9,62.0,71.0,63.7,-99.9,99,93,79,0.00,40.00,11,6,0,0.05
2013-12-29,75.0,70.5,64.0,72.0,69.1,64.0,100,95,90,0.00,40.00,10,5,0,0.39
2013-12-30,69.0,59.8,54.0,64.0,55.1,48.0,100,86,48,0.00,40.00,7,4,0,0.00
2014-1-1,64.0,59.0,56.0,61.0,57.4,52.0,99,94,83,0.00,40.00,11,6,0,0.05
2014-1-2,75.0,65.2,57.0,71.0,64.7,55.0,100,99,87,0.00,40.00,9,5,0,0.10